Time;durP1;ratioP1;P1;durP2;ratioP2;P2;SDS_P1;SDS_P2;PMS_P1;PMS_P2;Temp;Humidity;BMP_temperature;BMP_pressure;BME280_temperature;BME280_humidity;BME280_pressure;Samples;Min_cycle;Max_cycle;Signal;HPM_P1;HPM_P2
2022/05/13 00:02:10;;;;;;;14.68;10.90;;;11.30;99.90;;;;;;5094410;28;20020;-68
2022/05/13 00:04:36;;;;;;;15.07;11.57;;;11.20;99.90;;;;;;5095511;28;20035;-68
2022/05/13 00:07:02;;;;;;;15.15;11.57;;;11.20;99.90;;;;;;5095733;28;20424;-68
2022/05/13 00:12:14;;;;;;;15.00;11.05;;;11.00;99.90;;;;;;5093997;28;20524;-68
2022/05/13 00:14:41;;;;;;;17.15;11.38;;;11.00;99.90;;;;;;5095623;28;20024;-68
2022/05/13 00:17:07;;;;;;;12.15;10.35;;;10.90;99.90;;;;;;5095546;28;20111;-68
2022/05/13 00:19:33;;;;;;;13.50;10.80;;;10.90;99.90;;;;;;5095512;28;20383;-67
2022/05/13 00:21:59;;;;;;;16.83;11.05;;;10.80;99.90;;;;;;5095192;28;20119;-68
2022/05/13 00:24:24;;;;;;;13.82;10.95;;;10.80;99.90;;;;;;5095157;28;20086;-68
2022/05/13 00:26:50;;;;;;;18.80;12.32;;;10.70;99.90;;;;;;5095126;28;20036;-68
2022/05/13 00:29:16;;;;;;;19.45;13.15;;;10.70;99.90;;;;;;5095311;28;20058;-68
2022/05/13 00:31:42;;;;;;;20.05;13.40;;;10.70;99.90;;;;;;5093999;28;20023;-68
2022/05/13 00:34:09;;;;;;;19.33;12.30;;;10.70;99.90;;;;;;5095193;28;20463;-67
2022/05/13 00:36:35;;;;;;;20.48;13.63;;;10.60;99.90;;;;;;5095159;28;20047;-67
2022/05/13 00:39:02;;;;;;;20.70;13.48;;;10.60;99.90;;;;;;5094799;28;20028;-68
2022/05/13 00:41:28;;;;;;;16.48;12.18;;;10.60;99.90;;;;;;5095082;28;20054;-68
2022/05/13 00:43:53;;;;;;;14.82;12.45;;;10.60;99.90;;;;;;5094750;28;20494;-68
2022/05/13 00:46:20;;;;;;;18.73;13.45;;;10.60;99.90;;;;;;5094687;28;20040;-68
2022/05/13 00:48:47;;;;;;;16.77;12.15;;;10.60;99.90;;;;;;5094704;28;20375;-67
2022/05/13 00:51:17;;;;;;;14.10;11.20;;;10.70;99.90;;;;;;5094680;28;20024;-67
2022/05/13 00:53:44;;;;;;;13.65;10.75;;;10.70;99.90;;;;;;5094460;28;20024;-68
2022/05/13 00:56:10;;;;;;;14.82;11.15;;;10.70;99.90;;;;;;5092537;28;20031;-68
2022/05/13 00:58:40;;;;;;;14.23;10.50;;;10.70;99.90;;;;;;5094747;28;20020;-68
2022/05/13 01:01:06;;;;;;;19.35;12.93;;;10.60;99.90;;;;;;5094434;28;20054;-67
2022/05/13 01:03:33;;;;;;;14.85;12.15;;;10.60;99.90;;;;;;5094688;28;20394;-67
2022/05/13 01:06:03;;;;;;;13.98;12.45;;;10.50;99.90;;;;;;5094585;28;20023;-67
2022/05/13 01:08:32;;;;;;;21.48;13.77;;;10.50;99.90;;;;;;5094525;28;20031;-67
2022/05/13 01:11:00;;;;;;;16.17;12.75;;;10.40;99.90;;;;;;5094266;28;20024;-68
2022/05/13 01:13:29;;;;;;;20.75;13.07;;;10.40;99.90;;;;;;5093997;28;20036;-67
2022/05/13 01:15:55;;;;;;;17.20;12.02;;;10.30;99.90;;;;;;5093305;28;20382;-68
2022/05/13 01:18:39;;;;;;;13.63;11.40;;;10.20;99.90;;;;;;5093159;28;20103;-68
2022/05/13 01:21:07;;;;;;;15.27;12.10;;;10.20;99.90;;;;;;5094194;28;20024;-67
2022/05/13 01:23:37;;;;;;;19.02;13.32;;;10.10;99.90;;;;;;5094019;28;20184;-67
2022/05/13 01:26:06;;;;;;;13.85;11.90;;;10.10;99.90;;;;;;5093990;28;20030;-67
2022/05/13 01:28:38;;;;;;;15.27;12.45;;;10.00;99.90;;;;;;5094225;28;20028;-67
2022/05/13 01:31:07;;;;;;;14.82;11.35;;;10.00;99.90;;;;;;5094012;28;20081;-67
2022/05/13 01:33:34;;;;;;;12.82;10.68;;;10.00;99.90;;;;;;5093804;28;20063;-68
2022/05/13 01:36:01;;;;;;;16.15;13.07;;;10.00;99.90;;;;;;5093773;28;20020;-67
2022/05/13 01:38:32;;;;;;;17.67;12.50;;;10.00;99.90;;;;;;5092538;28;20021;-67
2022/05/13 01:40:57;;;;;;;18.08;13.05;;;10.00;99.90;;;;;;5092712;28;20085;-68
2022/05/13 01:43:23;;;;;;;14.63;11.82;;;10.00;99.90;;;;;;5093670;28;20027;-67
2022/05/13 01:45:50;;;;;;;15.38;12.23;;;10.00;99.90;;;;;;5093608;28;20028;-67
2022/05/13 01:48:16;;;;;;;16.05;12.30;;;10.00;99.90;;;;;;5092470;28;20027;-67
2022/05/13 01:50:41;;;;;;;17.90;12.48;;;9.90;99.90;;;;;;5093664;28;20386;-67
2022/05/13 01:53:07;;;;;;;18.38;13.05;;;9.90;99.90;;;;;;5093454;28;20020;-67
2022/05/13 01:55:33;;;;;;;15.70;11.90;;;9.90;99.90;;;;;;5092622;28;20559;-67
2022/05/13 01:57:59;;;;;;;13.63;11.70;;;9.90;99.90;;;;;;5093445;28;20071;-67
2022/05/13 02:00:25;;;;;;;20.25;13.25;;;9.90;99.90;;;;;;5093474;28;20036;-67
2022/05/13 02:05:36;;;;;;;17.55;12.27;;;9.90;99.90;;;;;;5093231;28;20024;-67
2022/05/13 02:08:02;;;;;;;16.20;12.15;;;9.90;99.90;;;;;;5093205;28;20077;-67
2022/05/13 02:10:29;;;;;;;20.27;12.85;;;9.90;99.90;;;;;;5093625;28;20119;-67
2022/05/13 02:12:55;;;;;;;15.38;11.68;;;10.00;99.90;;;;;;5093108;28;20119;-67
2022/05/13 02:15:21;;;;;;;18.05;12.23;;;9.90;99.90;;;;;;5093573;28;20508;-67
2022/05/13 02:17:47;;;;;;;16.80;11.85;;;9.90;99.90;;;;;;5093214;28;20028;-68
2022/05/13 02:20:13;;;;;;;21.65;13.25;;;9.90;99.90;;;;;;5093265;28;20081;-68
2022/05/13 02:22:38;;;;;;;15.45;11.60;;;9.90;99.90;;;;;;5093482;28;20032;-67
2022/05/13 02:25:05;;;;;;;18.80;12.20;;;9.90;99.90;;;;;;5093171;28;20097;-67
2022/05/13 02:27:31;;;;;;;19.40;11.98;;;9.90;99.90;;;;;;5093424;28;20536;-67
2022/05/13 02:29:57;;;;;;;22.30;13.60;;;9.90;99.90;;;;;;5093386;28;20024;-67
2022/05/13 02:32:22;;;;;;;24.83;14.75;;;9.90;99.90;;;;;;5093345;28;20472;-67
2022/05/13 02:34:48;;;;;;;19.05;12.85;;;9.90;99.90;;;;;;5093156;28;20028;-67
2022/05/13 02:37:15;;;;;;;17.10;12.38;;;9.90;99.90;;;;;;5093355;28;20476;-67
2022/05/13 02:39:40;;;;;;;21.80;13.13;;;9.90;99.90;;;;;;5093071;28;20012;-67
2022/05/13 02:42:06;;;;;;;19.67;12.50;;;9.80;99.90;;;;;;5093034;28;20497;-67
2022/05/13 02:44:32;;;;;;;17.00;12.95;;;9.70;99.90;;;;;;5093261;28;20482;-67
2022/05/13 02:46:57;;;;;;;17.33;12.02;;;9.60;99.90;;;;;;5092985;28;20103;-67
2022/05/13 02:49:23;;;;;;;17.35;12.15;;;9.50;99.90;;;;;;5093054;28;20035;-67
2022/05/13 02:51:49;;;;;;;17.33;13.00;;;9.50;99.90;;;;;;5093136;28;20052;-67
2022/05/13 02:54:16;;;;;;;18.23;11.98;;;9.40;99.90;;;;;;5093026;28;20031;-67
2022/05/13 02:56:42;;;;;;;22.80;14.25;;;9.30;99.90;;;;;;5093189;28;20527;-67
2022/05/13 02:59:07;;;;;;;16.92;11.85;;;9.30;99.90;;;;;;5093014;28;20028;-67
2022/05/13 03:01:33;;;;;;;17.10;12.43;;;9.20;99.90;;;;;;5092876;28;20023;-67
2022/05/13 03:03:59;;;;;;;18.70;11.48;;;9.10;99.90;;;;;;5093127;28;20082;-68
2022/05/13 03:06:24;;;;;;;16.67;12.27;;;9.00;99.90;;;;;;5091569;28;20035;-67
2022/05/13 03:08:50;;;;;;;17.17;11.85;;;9.00;99.90;;;;;;5092949;28;20047;-67
2022/05/13 03:11:17;;;;;;;16.50;10.85;;;8.90;99.90;;;;;;5092860;28;20050;-67
2022/05/13 03:13:42;;;;;;;16.70;11.82;;;8.90;99.90;;;;;;5093024;28;20028;-67
2022/05/13 03:16:11;;;;;;;16.58;11.10;;;8.90;99.90;;;;;;5092881;28;20535;-67
2022/05/13 03:18:40;;;;;;;18.02;12.80;;;8.80;99.90;;;;;;5092756;28;20035;-67
2022/05/13 03:21:07;;;;;;;17.45;11.75;;;8.80;99.90;;;;;;5095944;28;20433;-68
2022/05/13 03:23:33;;;;;;;18.55;12.05;;;8.70;99.90;;;;;;5095438;28;20028;-67
2022/05/13 03:25:59;;;;;;;16.92;12.07;;;8.70;99.90;;;;;;5096592;28;20385;-67
2022/05/13 03:28:24;;;;;;;14.57;11.15;;;8.70;99.90;;;;;;5096578;28;20111;-67
2022/05/13 03:30:50;;;;;;;16.08;11.38;;;8.80;99.90;;;;;;5096173;28;20481;-67
2022/05/13 03:33:18;;;;;;;17.30;12.20;;;8.70;99.90;;;;;;5094771;28;20028;-68
2022/05/13 03:35:43;;;;;;;17.02;11.85;;;8.70;99.90;;;;;;5096165;28;20028;-67
2022/05/13 03:38:09;;;;;;;17.83;12.30;;;8.70;99.90;;;;;;5096140;28;20401;-67
2022/05/13 03:40:36;;;;;;;20.90;12.15;;;8.60;99.90;;;;;;5096031;28;20031;-68
2022/05/13 03:43:03;;;;;;;15.93;11.45;;;8.60;99.90;;;;;;5095103;28;20028;-67
2022/05/13 03:45:30;;;;;;;19.98;11.45;;;8.60;99.90;;;;;;5096168;28;20099;-67
2022/05/13 03:47:56;;;;;;;19.75;11.35;;;8.60;99.90;;;;;;5096135;28;20024;-67
2022/05/13 03:50:22;;;;;;;17.77;11.10;;;8.50;99.90;;;;;;5095861;28;20430;-67
2022/05/13 03:52:47;;;;;;;19.95;11.57;;;8.60;99.90;;;;;;5095951;28;20055;-67
2022/05/13 03:55:13;;;;;;;14.07;11.40;;;8.60;99.90;;;;;;5095977;28;20031;-67
2022/05/13 03:57:39;;;;;;;16.20;12.02;;;8.60;99.90;;;;;;5095764;28;20390;-67
2022/05/13 04:00:07;;;;;;;18.95;12.52;;;8.70;99.90;;;;;;5095945;28;20024;-68
2022/05/13 04:02:32;;;;;;;15.52;11.82;;;8.80;99.90;;;;;;5095764;28;20387;-68
2022/05/13 04:10:29;;;;;;;18.83;12.52;;;9.30;99.90;;;;;;5095316;28;20545;-67
2022/05/13 04:16:12;;;;;;;21.17;11.25;;;9.50;99.90;;;;;;5095272;28;20027;-69
2022/05/13 04:18:27;;;;;;;17.27;12.10;;;9.70;99.90;;;;;;5095129;28;20040;-68
2022/05/13 04:20:52;;;;;;;17.77;10.93;;;9.80;99.90;;;;;;5095500;28;20027;-68
2022/05/13 04:23:18;;;;;;;18.83;11.02;;;9.90;99.90;;;;;;5095211;28;20107;-68
2022/05/13 04:25:45;;;;;;;18.65;10.85;;;10.00;99.90;;;;;;5095419;28;20031;-68
2022/05/13 04:28:10;;;;;;;20.23;10.32;;;10.00;99.90;;;;;;5095386;28;20111;-68
2022/05/13 04:30:36;;;;;;;16.92;8.95;;;10.10;99.90;;;;;;5095024;28;20578;-69
2022/05/13 04:33:03;;;;;;;16.60;8.82;;;10.10;99.90;;;;;;5094869;28;20043;-69
2022/05/13 04:35:28;;;;;;;16.25;9.07;;;10.20;99.90;;;;;;5094890;28;20063;-69
2022/05/13 04:37:54;;;;;;;15.43;8.55;;;10.30;99.90;;;;;;5094934;28;20048;-69
2022/05/13 04:40:19;;;;;;;17.38;8.00;;;10.40;99.90;;;;;;5094835;28;20069;-69
2022/05/13 04:42:53;;;;;;;16.15;7.68;;;10.50;99.90;;;;;;5095066;28;20016;-68
2022/05/13 04:45:24;;;;;;;14.65;7.47;;;10.50;99.90;;;;;;5094841;28;20020;-68
2022/05/13 04:48:26;;;;;;;19.23;7.35;;;10.50;99.90;;;;;;5094941;28;20373;-69
2022/05/13 04:50:42;;;;;;;16.63;8.43;;;10.60;99.90;;;;;;5094541;28;20028;-69
2022/05/13 04:53:09;;;;;;;17.55;6.95;;;10.60;99.90;;;;;;5094596;28;20122;-68
2022/05/13 04:55:36;;;;;;;17.83;7.10;;;10.60;99.90;;;;;;5094559;28;20028;-68
2022/05/13 04:58:02;;;;;;;16.88;7.32;;;10.70;99.90;;;;;;5094766;28;20028;-68
2022/05/13 05:00:28;;;;;;;17.75;6.57;;;10.90;99.90;;;;;;5094365;28;20020;-69
2022/05/13 05:02:54;;;;;;;15.02;6.10;;;11.00;99.90;;;;;;5094420;28;20035;-69
2022/05/13 05:05:19;;;;;;;13.73;5.72;;;11.00;99.90;;;;;;5094414;28;20115;-69
2022/05/13 05:07:45;;;;;;;13.65;5.50;;;11.00;99.90;;;;;;5094401;28;20036;-69
2022/05/13 05:10:11;;;;;;;11.77;5.68;;;11.10;99.90;;;;;;5094308;28;20054;-68
2022/05/13 05:12:37;;;;;;;16.83;5.53;;;11.00;99.90;;;;;;5093926;28;20052;-69
2022/05/13 05:15:04;;;;;;;20.42;5.53;;;11.10;99.90;;;;;;5094463;28;20055;-68
2022/05/13 05:17:30;;;;;;;11.75;4.35;;;11.20;99.90;;;;;;5094359;28;20367;-68
2022/05/13 05:19:55;;;;;;;11.45;4.78;;;11.40;99.90;;;;;;5094333;28;20033;-69
2022/05/13 05:22:21;;;;;;;16.77;4.80;;;11.70;99.90;;;;;;5092801;28;20494;-69
2022/05/13 05:24:47;;;;;;;15.18;4.63;;;11.80;99.90;;;;;;5094222;28;20035;-69
2022/05/13 05:27:12;;;;;;;19.50;4.68;;;11.70;99.90;;;;;;5094020;28;20028;-69
2022/05/13 05:29:38;;;;;;;13.82;4.35;;;11.80;99.90;;;;;;5093990;28;20108;-68
2022/05/13 05:32:04;;;;;;;10.93;3.83;;;11.70;99.90;;;;;;5093813;28;20482;-69
2022/05/13 05:34:30;;;;;;;10.77;3.80;;;11.70;99.90;;;;;;5093720;28;20022;-69
2022/05/13 05:36:55;;;;;;;12.63;4.38;;;11.70;99.90;;;;;;5093740;28;20103;-69
2022/05/13 05:39:21;;;;;;;14.73;4.53;;;11.70;99.90;;;;;;5093758;28;20016;-68
2022/05/13 05:41:46;;;;;;;11.65;4.57;;;11.80;99.90;;;;;;5093691;28;20024;-69
2022/05/13 05:44:12;;;;;;;18.67;4.72;;;11.80;99.90;;;;;;5093393;28;20140;-69
2022/05/13 05:46:38;;;;;;;11.50;4.60;;;11.70;99.90;;;;;;5093707;28;20486;-69
2022/05/13 05:49:04;;;;;;;19.58;5.03;;;11.70;99.90;;;;;;5093560;28;20020;-68
2022/05/13 05:51:30;;;;;;;17.40;5.45;;;11.70;99.90;;;;;;5093501;28;20024;-69
2022/05/13 05:59:26;;;;;;;13.38;5.25;;;11.80;99.90;;;;;;5093188;28;20440;-69
2022/05/13 06:01:52;;;;;;;18.83;4.93;;;12.00;99.90;;;;;;5091904;28;20013;-69
2022/05/13 06:04:17;;;;;;;13.27;4.95;;;12.40;99.90;;;;;;5094287;28;20149;-68
2022/05/13 06:06:43;;;;;;;14.00;5.40;;;12.30;99.90;;;;;;5108352;28;20031;-68
2022/05/13 06:09:09;;;;;;;19.58;5.43;;;12.10;99.90;;;;;;5113707;28;20020;-68
2022/05/13 06:11:37;;;;;;;15.85;5.28;;;12.10;99.90;;;;;;5113601;28;20052;-69
2022/05/13 06:14:03;;;;;;;15.70;5.78;;;12.00;99.90;;;;;;5113471;28;20016;-68
2022/05/13 06:16:30;;;;;;;13.52;5.25;;;12.00;99.90;;;;;;5112595;28;20478;-68
2022/05/13 06:19:00;;;;;;;17.10;5.43;;;12.00;99.90;;;;;;5112340;28;20016;-69
2022/05/13 06:21:26;;;;;;;11.23;5.13;;;12.10;99.90;;;;;;5092759;28;20031;-69
2022/05/13 06:23:52;;;;;;;14.93;5.15;;;12.20;99.90;;;;;;5075020;28;20475;-69
2022/05/13 06:26:18;;;;;;;16.08;5.43;;;12.30;99.90;;;;;;5072887;28;20029;-69
2022/05/13 06:28:44;;;;;;;13.60;5.50;;;12.20;99.90;;;;;;5072928;28;20550;-69
2022/05/13 06:31:10;;;;;;;13.77;5.65;;;12.00;99.90;;;;;;5072824;28;20032;-68
2022/05/13 06:33:36;;;;;;;22.45;6.35;;;12.30;99.90;;;;;;5073102;28;20465;-68
2022/05/13 06:36:01;;;;;;;17.17;5.93;;;12.30;99.90;;;;;;5071912;28;20024;-69
2022/05/13 06:38:27;;;;;;;16.73;5.75;;;12.40;99.90;;;;;;5071573;28;20020;-69
2022/05/13 06:40:54;;;;;;;17.17;6.28;;;12.50;99.90;;;;;;5072873;28;20493;-69
2022/05/13 06:43:21;;;;;;;21.40;6.20;;;12.50;99.90;;;;;;5072973;28;20036;-69
2022/05/13 06:45:47;;;;;;;17.75;6.10;;;12.50;99.90;;;;;;5072769;28;20043;-69
2022/05/13 06:48:12;;;;;;;21.05;6.07;;;12.40;99.90;;;;;;5072952;28;20490;-69
2022/05/13 06:50:43;;;;;;;18.77;6.15;;;12.30;99.90;;;;;;5072937;28;20031;-69
2022/05/13 06:53:10;;;;;;;20.92;6.05;;;12.30;99.90;;;;;;5075303;28;20020;-69
2022/05/13 06:55:35;;;;;;;17.00;5.60;;;12.40;99.90;;;;;;5095198;28;20059;-69
2022/05/13 06:58:01;;;;;;;13.50;5.75;;;12.60;99.90;;;;;;5086207;28;20052;-68
2022/05/13 07:00:26;;;;;;;16.13;5.80;;;12.90;99.90;;;;;;5089836;28;20029;-69
2022/05/13 07:02:52;;;;;;;15.95;5.63;;;12.90;99.90;;;;;;5076214;28;20035;-69
2022/05/13 07:05:20;;;;;;;18.42;6.03;;;13.10;99.90;;;;;;5076288;28;20498;-69
2022/05/13 07:07:46;;;;;;;16.50;5.85;;;13.50;99.90;;;;;;5076315;28;20130;-69
2022/05/13 07:10:12;;;;;;;17.08;5.50;;;13.70;99.90;;;;;;5076411;28;20025;-68
2022/05/13 07:12:39;;;;;;;21.92;5.82;;;13.80;99.90;;;;;;5076281;28;20047;-67
2022/05/13 07:15:08;;;;;;;17.63;5.32;;;13.90;99.90;;;;;;5077107;28;20644;-67
2022/05/13 07:17:33;;;;;;;17.25;5.60;;;14.70;99.90;;;;;;5088086;28;20026;-67
2022/05/13 07:19:59;;;;;;;18.58;5.38;;;16.80;99.90;;;;;;5075815;28;20382;-67
2022/05/13 07:22:24;;;;;;;13.73;5.28;;;17.40;99.90;;;;;;5076147;28;20029;-68
2022/05/13 07:24:51;;;;;;;15.73;5.10;;;17.90;99.90;;;;;;5075994;28;20074;-67
2022/05/13 07:27:17;;;;;;;16.70;5.38;;;18.10;99.90;;;;;;5075936;28;20478;-68
2022/05/13 07:29:43;;;;;;;20.23;5.70;;;17.60;99.90;;;;;;5092336;28;20032;-69
2022/05/13 07:32:09;;;;;;;21.63;5.47;;;17.60;99.90;;;;;;5089547;28;20043;-69
2022/05/13 07:34:34;;;;;;;15.20;5.13;;;17.60;99.90;;;;;;5084888;28;20035;-69
2022/05/13 07:37:00;;;;;;;15.88;4.75;;;18.00;99.90;;;;;;5085989;28;20071;-69
2022/05/13 07:42:11;;;;;;;13.27;5.40;;;18.20;99.90;;;;;;5075603;28;20048;-68
2022/05/13 07:44:37;;;;;;;16.27;5.80;;;17.80;99.90;;;;;;5080617;28;20426;-68
2022/05/13 07:47:05;;;;;;;15.82;5.10;;;17.10;99.90;;;;;;5075565;28;20032;-69
2022/05/13 07:49:32;;;;;;;10.45;4.55;;;17.10;99.90;;;;;;5077142;28;20020;-68
2022/05/13 07:51:57;;;;;;;17.98;5.63;;;17.00;99.90;;;;;;5095881;28;20024;-68
2022/05/13 07:54:23;;;;;;;16.27;5.72;;;16.70;99.90;;;;;;5094958;28;20386;-68
2022/05/13 07:56:49;;;;;;;14.95;5.55;;;16.70;99.90;;;;;;5094313;28;20561;-68
2022/05/13 07:59:14;;;;;;;12.98;4.90;;;17.00;99.90;;;;;;5095587;28;20033;-68
2022/05/13 08:01:40;;;;;;;13.27;4.95;;;17.60;99.90;;;;;;5075616;28;20103;-69
2022/05/13 08:04:05;;;;;;;14.88;4.75;;;18.10;99.90;;;;;;5075193;28;20474;-69
2022/05/13 08:06:32;;;;;;;13.77;4.70;;;18.50;99.90;;;;;;5090467;28;20032;-69
2022/05/13 08:08:58;;;;;;;15.88;4.70;;;18.70;99.90;;;;;;5094238;28;20443;-69
2022/05/13 08:11:28;;;;;;;13.18;4.05;;;18.80;99.90;;;;;;5088978;28;20031;-69
2022/05/13 08:13:56;;;;;;;14.70;4.07;;;18.80;99.90;;;;;;5093457;28;20031;-68
2022/05/13 08:16:25;;;;;;;14.23;4.22;;;18.40;99.90;;;;;;5084847;28;20017;-68
2022/05/13 08:18:53;;;;;;;11.20;3.88;;;18.90;99.90;;;;;;5075073;28;20032;-69
2022/05/13 08:21:19;;;;;;;10.90;3.67;;;19.40;99.90;;;;;;5082922;28;20489;-68
2022/05/13 08:23:46;;;;;;;11.10;4.65;;;19.80;98.70;;;;;;5095135;28;20081;-68
2022/05/13 08:26:12;;;;;;;12.23;3.85;;;19.20;99.00;;;;;;5087259;28;20032;-69
2022/05/13 08:28:39;;;;;;;18.95;4.13;;;19.50;97.90;;;;;;5074922;28;20363;-67
2022/05/13 08:31:05;;;;;;;7.57;3.05;;;19.80;98.30;;;;;;5074525;28;20021;-68
2022/05/13 08:33:30;;;;;;;9.20;2.80;;;19.90;96.60;;;;;;5073329;28;20037;-68
2022/05/13 08:35:59;;;;;;;10.55;2.78;;;19.90;95.30;;;;;;5077123;28;20036;-68
2022/05/13 08:38:28;;;;;;;10.07;2.90;;;19.50;94.70;;;;;;5096091;28;20016;-68
2022/05/13 08:43:51;;;;;;;7.40;2.17;;;19.40;94.80;;;;;;5075044;28;20357;-67
2022/05/13 08:46:49;;;;;;;12.45;3.45;;;18.90;95.10;;;;;;5079980;28;20028;-66
2022/05/13 08:49:45;;;;;;;10.75;2.95;;;18.40;96.60;;;;;;5090602;28;20024;-67
2022/05/13 08:55:14;;;;;;;10.75;3.75;;;18.40;98.50;;;;;;5069830;28;20380;-67
2022/05/13 08:57:43;;;;;;;10.68;3.78;;;17.80;99.90;;;;;;5068987;28;20031;-68
2022/05/13 09:00:16;;;;;;;9.02;3.65;;;17.50;99.90;;;;;;5074567;28;20066;-67
2022/05/13 09:02:51;;;;;;;11.60;3.08;;;17.20;99.90;;;;;;5075504;28;20033;-68
2022/05/13 09:05:40;;;;;;;8.35;2.30;;;17.30;99.90;;;;;;5072239;28;20054;-68
2022/05/13 09:08:07;;;;;;;8.93;2.40;;;17.30;99.90;;;;;;5083981;28;20505;-68
2022/05/13 09:10:42;;;;;;;9.10;2.50;;;18.20;99.20;;;;;;5050268;28;20025;-69
2022/05/13 09:13:20;;;;;;;8.25;1.60;;;19.80;96.10;;;;;;5049967;28;20029;-68
2022/05/13 09:15:52;;;;;;;7.50;2.17;;;20.70;91.50;;;;;;5058609;28;20108;-68
2022/05/13 09:18:33;;;;;;;9.07;2.70;;;20.30;90.20;;;;;;5079005;28;20028;-68
2022/05/13 09:21:02;;;;;;;9.60;1.98;;;19.50;92.30;;;;;;5089928;28;20025;-68
2022/05/13 09:23:29;;;;;;;7.30;2.22;;;19.20;93.60;;;;;;5088453;28;20533;-68
2022/05/13 09:26:13;;;;;;;9.70;2.38;;;19.30;94.10;;;;;;5049355;28;20068;-68
2022/05/13 09:29:03;;;;;;;5.97;1.95;;;19.90;93.70;;;;;;5049442;28;20066;-69
2022/05/13 09:31:30;;;;;;;7.57;2.38;;;19.90;93.30;;;;;;5049819;28;20083;-68
2022/05/13 09:33:56;;;;;;;8.57;2.30;;;19.90;93.40;;;;;;5056841;28;20360;-68
2022/05/13 09:39:17;;;;;;;8.10;1.95;;;19.60;91.80;;;;;;5110846;27;20474;-67
2022/05/13 09:41:43;;;;;;;7.83;2.20;;;18.10;93.00;;;;;;5110950;28;20031;-67
2022/05/13 09:44:14;;;;;;;9.45;2.15;;;17.50;94.30;;;;;;5110949;28;20028;-67
2022/05/13 09:46:47;;;;;;;8.65;2.30;;;17.80;95.60;;;;;;5109953;28;20787;-67
2022/05/13 09:49:38;;;;;;;11.00;2.40;;;17.90;94.90;;;;;;5112182;28;20024;-68
2022/05/13 09:52:14;;;;;;;3.90;1.88;;;17.70;96.30;;;;;;5090528;28;20525;-67
2022/05/13 09:54:41;;;;;;;4.60;2.15;;;18.00;96.70;;;;;;5110354;28;20024;-68
2022/05/13 09:57:11;;;;;;;4.07;1.88;;;18.00;95.10;;;;;;5110409;28;20028;-69
2022/05/13 09:59:40;;;;;;;4.93;1.98;;;18.10;93.50;;;;;;5110483;28;20433;-69
2022/05/13 10:02:19;;;;;;;6.00;2.15;;;18.50;94.10;;;;;;5106981;28;20020;-68
2022/05/13 10:04:50;;;;;;;7.13;2.30;;;18.90;94.30;;;;;;5090341;28;20020;-69
2022/05/13 10:07:16;;;;;;;9.90;2.85;;;18.80;94.50;;;;;;5094512;28;20020;-69
2022/05/13 10:15:29;;;;;;;5.70;2.50;;;17.80;97.50;;;;;;5112321;28;20035;-69
2022/05/13 10:18:01;;;;;;;8.07;2.75;;;18.80;95.00;;;;;;5090415;28;20058;-69
2022/05/13 10:20:38;;;;;;;5.80;3.10;;;18.80;95.00;;;;;;5101626;28;20066;-68
2022/05/13 10:23:27;;;;;;;5.40;2.63;;;18.60;95.20;;;;;;5109929;28;20028;-68
2022/05/13 10:26:01;;;;;;;6.43;3.22;;;18.50;95.30;;;;;;5096922;28;20024;-68
2022/05/13 10:28:33;;;;;;;6.57;3.50;;;18.50;95.40;;;;;;5089741;28;20031;-68
2022/05/13 10:31:06;;;;;;;7.63;2.95;;;18.50;95.60;;;;;;5095017;28;20458;-68
2022/05/13 10:33:36;;;;;;;;;;;18.30;96.70;;;;;;5098737;28;20030;-67
2022/05/13 10:36:10;;;;;;;9.05;2.95;;;18.20;96.30;;;;;;5109622;28;19926;-68
2022/05/13 10:38:44;;;;;;;5.93;2.65;;;18.10;97.20;;;;;;5110829;28;20498;-68
2022/05/13 10:41:19;;;;;;;7.22;2.75;;;17.80;96.70;;;;;;5093329;28;20389;-68
2022/05/13 10:43:54;;;;;;;7.25;3.05;;;17.70;98.60;;;;;;5094230;28;20100;-68
2022/05/13 10:46:26;;;;;;;7.38;2.95;;;18.00;97.70;;;;;;5099105;28;20117;-68
2022/05/13 10:48:54;;;;;;;7.28;2.80;;;18.40;97.90;;;;;;5089685;28;20475;-69
2022/05/13 10:51:28;;;;;;;9.23;2.92;;;18.80;95.70;;;;;;5096056;28;20070;-68
2022/05/13 10:54:19;;;;;;;16.92;3.65;;;18.60;95.50;;;;;;5091746;28;20081;-67
2022/05/13 10:56:58;;;;;;;7.65;2.85;;;18.50;95.70;;;;;;5081413;28;20478;-69
2022/05/13 10:59:45;;;;;;;8.95;3.03;;;18.60;96.90;;;;;;5093277;28;20059;-68
2022/05/13 11:02:51;;;;;;;8.07;3.08;;;18.60;97.40;;;;;;5092571;28;20441;-67
2022/05/13 11:05:35;;;;;;;8.63;2.78;;;18.70;96.40;;;;;;5090342;28;20035;-67
2022/05/13 11:08:30;;;;;;;7.15;3.05;;;18.40;97.30;;;;;;5084918;28;20024;-68
2022/05/13 11:11:26;;;;;;;6.53;2.95;;;18.40;97.10;;;;;;5095174;28;20420;-68
2022/05/13 11:14:32;;;;;;;6.15;3.70;;;18.60;97.50;;;;;;5095630;28;20051;-69
2022/05/13 11:17:30;;;;;;;7.63;3.75;;;18.30;96.50;;;;;;5078474;28;20028;-68
2022/05/13 11:20:23;;;;;;;7.20;3.67;;;17.80;97.20;;;;;;5077889;28;20410;-68
2022/05/13 11:23:07;;;;;;;6.20;3.58;;;17.90;99.50;;;;;;5081932;28;20432;-68
2022/05/13 11:25:54;;;;;;;8.85;3.78;;;18.10;99.00;;;;;;5087885;28;20049;-68
2022/05/13 11:28:36;;;;;;;10.80;4.10;;;18.40;99.20;;;;;;5086063;28;20024;-69
2022/05/13 11:31:27;;;;;;;12.02;4.30;;;18.50;98.40;;;;;;5095178;28;20486;-70
2022/05/13 11:34:32;;;;;;;7.35;3.80;;;18.70;98.50;;;;;;5095186;28;20024;-70
2022/05/13 11:37:02;;;;;;;8.55;3.58;;;18.90;97.30;;;;;;5095857;28;20247;-70
2022/05/13 11:39:51;;;;;;;9.48;4.10;;;18.80;97.00;;;;;;5098712;28;20363;-69
2022/05/13 11:43:29;;;;;;;9.95;3.75;;;18.60;96.80;;;;;;5092743;28;20399;-69
2022/05/13 11:46:14;;;;;;;8.65;4.15;;;18.80;98.00;;;;;;5094352;28;20056;-69
2022/05/13 11:48:43;;;;;;;11.00;4.10;;;18.80;97.20;;;;;;5094770;28;20435;-69
2022/05/13 11:51:29;;;;;;;8.35;4.10;;;19.10;96.70;;;;;;5096202;28;20034;-69
2022/05/13 11:56:43;;;;;;;11.98;4.60;;;19.50;96.40;;;;;;5109497;27;20467;-69
2022/05/13 11:59:30;;;;;;;10.48;5.18;;;18.80;98.10;;;;;;5092342;28;20024;-69
2022/05/13 12:02:08;;;;;;;10.63;4.63;;;18.60;97.10;;;;;;5091173;28;20479;-69
2022/05/13 12:04:37;;;;;;;13.32;4.60;;;18.00;97.80;;;;;;5110317;28;20115;-68
2022/05/13 12:10:04;;;;;;;9.07;4.72;;;18.00;99.90;;;;;;5090427;28;20113;-68
2022/05/13 12:12:55;;;;;;;10.40;4.35;;;18.20;98.40;;;;;;5089923;28;20032;-69
2022/05/13 12:15:46;;;;;;;10.70;4.72;;;18.70;98.00;;;;;;5082906;28;20100;-67
2022/05/13 12:18:30;;;;;;;14.38;4.70;;;18.50;98.00;;;;;;5069007;28;20102;-68
2022/05/13 12:21:23;;;;;;;12.35;4.40;;;18.50;98.90;;;;;;5086508;28;20493;-69
2022/05/13 12:23:56;;;;;;;16.23;4.82;;;19.00;98.90;;;;;;5076549;28;20546;-68
2022/05/13 12:26:43;;;;;;;10.60;4.72;;;19.60;98.30;;;;;;5069006;28;20063;-68
2022/05/13 12:29:18;;;;;;;10.32;4.60;;;19.90;95.60;;;;;;5068771;28;20087;-68
2022/05/13 12:31:57;;;;;;;10.98;5.07;;;19.50;96.00;;;;;;5078629;28;20030;-68
2022/05/13 12:37:34;;;;;;;13.30;5.13;;;18.80;96.50;;;;;;5089692;28;20024;-68
2022/05/13 12:42:46;;;;;;;10.60;5.00;;;18.70;97.00;;;;;;5090000;28;20348;-68
2022/05/13 12:48:13;;;;;;;13.15;5.63;;;19.00;97.90;;;;;;5109712;27;20416;-68
2022/05/13 12:51:02;;;;;;;14.15;6.07;;;19.20;95.60;;;;;;5108839;28;20486;-66
2022/05/13 12:53:34;;;;;;;15.80;6.70;;;19.00;97.10;;;;;;5098970;28;20403;-68
2022/05/13 12:56:09;;;;;;;13.38;4.18;;;18.70;97.50;;;;;;5110633;28;20085;-68
2022/05/13 12:58:40;;;;;;;10.65;4.10;;;19.10;93.80;;;;;;5109372;28;20103;-68
2022/05/13 13:01:06;;;;;;;6.88;4.07;;;19.60;94.50;;;;;;5110764;28;20016;-66
2022/05/13 13:03:43;;;;;;;11.65;4.85;;;19.90;94.30;;;;;;5106774;28;20020;-65
2022/05/13 13:06:16;;;;;;;10.00;5.13;;;19.80;93.50;;;;;;5090011;28;20503;-66
2022/05/13 13:08:43;;;;;;;12.57;5.00;;;19.50;94.80;;;;;;5094887;28;20535;-66
2022/05/13 13:11:23;;;;;;;12.63;5.05;;;19.80;94.60;;;;;;5110895;28;20052;-66
2022/05/13 13:14:06;;;;;;;10.52;5.32;;;19.50;95.50;;;;;;5104033;28;20551;-66
2022/05/13 13:16:39;;;;;;;9.73;4.85;;;19.20;95.20;;;;;;5089748;28;20040;-66
2022/05/13 13:19:13;;;;;;;9.93;5.07;;;19.30;95.90;;;;;;5097905;28;20043;-66
2022/05/13 13:21:41;;;;;;;12.70;5.03;;;19.60;94.40;;;;;;5110543;28;20034;-67
2022/05/13 13:24:15;;;;;;;9.77;4.88;;;19.60;93.90;;;;;;5096806;28;20494;-67
2022/05/13 13:26:42;;;;;;;;;;;19.90;93.50;;;;;;5105832;28;20020;-66
2022/05/13 13:29:08;;;;;;;8.18;5.05;;;19.90;93.50;;;;;;5108903;28;20357;-66
2022/05/13 13:31:41;;;;;;;9.85;5.10;;;20.10;94.00;;;;;;5095165;28;20035;-66
2022/05/13 13:34:37;;;;;;;11.73;5.32;;;19.80;94.20;;;;;;5090026;28;20198;-68
2022/05/13 13:37:08;;;;;;;9.40;5.82;;;19.70;93.90;;;;;;5090183;28;20040;-68
2022/05/13 13:39:34;;;;;;;11.07;5.68;;;19.70;92.80;;;;;;5088658;28;20017;-69
2022/05/13 13:42:05;;;;;;;10.27;5.68;;;19.60;92.50;;;;;;5102062;28;20019;-69
2022/05/13 13:44:31;;;;;;;10.02;6.18;;;19.40;92.70;;;;;;5089667;28;20028;-69
2022/05/13 13:46:57;;;;;;;9.30;5.97;;;19.50;92.70;;;;;;5104299;28;20040;-69